sensor_id;sensor_type;location;lat;lon;timestamp;P1;durP1;ratioP1;P2;durP2;ratioP2
19221;SDS011;9745;50.828;4.378;2022-07-23T00:01:21;17.90;;;11.17;;
19221;SDS011;9745;50.828;4.378;2022-07-23T00:03:47;15.13;;;11.57;;
19221;SDS011;9745;50.828;4.378;2022-07-23T00:06:13;17.27;;;11.77;;
19221;SDS011;9745;50.828;4.378;2022-07-23T00:08:39;19.27;;;11.67;;
19221;SDS011;9745;50.828;4.378;2022-07-23T00:11:05;17.17;;;12.20;;
19221;SDS011;9745;50.828;4.378;2022-07-23T00:13:31;16.67;;;12.17;;
19221;SDS011;9745;50.828;4.378;2022-07-23T00:15:57;18.67;;;12.87;;
19221;SDS011;9745;50.828;4.378;2022-07-23T00:18:23;19.90;;;13.03;;
19221;SDS011;9745;50.828;4.378;2022-07-23T00:20:50;20.67;;;13.53;;
19221;SDS011;9745;50.828;4.378;2022-07-23T00:23:16;18.13;;;13.47;;
19221;SDS011;9745;50.828;4.378;2022-07-23T00:25:42;35.17;;;14.47;;
19221;SDS011;9745;50.828;4.378;2022-07-23T00:28:10;20.17;;;13.73;;
19221;SDS011;9745;50.828;4.378;2022-07-23T00:30:36;19.80;;;14.67;;
19221;SDS011;9745;50.828;4.378;2022-07-23T00:33:03;17.93;;;14.13;;
19221;SDS011;9745;50.828;4.378;2022-07-23T00:35:30;17.80;;;13.27;;
19221;SDS011;9745;50.828;4.378;2022-07-23T00:37:57;23.70;;;15.40;;
19221;SDS011;9745;50.828;4.378;2022-07-23T00:40:23;19.97;;;15.10;;
19221;SDS011;9745;50.828;4.378;2022-07-23T00:42:50;17.97;;;13.33;;
19221;SDS011;9745;50.828;4.378;2022-07-23T00:45:16;19.67;;;14.73;;
19221;SDS011;9745;50.828;4.378;2022-07-23T00:47:42;21.07;;;14.60;;
19221;SDS011;9745;50.828;4.378;2022-07-23T00:50:08;21.73;;;14.83;;
19221;SDS011;9745;50.828;4.378;2022-07-23T00:52:35;18.23;;;13.97;;
19221;SDS011;9745;50.828;4.378;2022-07-23T00:55:01;20.20;;;14.60;;
19221;SDS011;9745;50.828;4.378;2022-07-23T00:57:27;19.90;;;14.77;;
19221;SDS011;9745;50.828;4.378;2022-07-23T00:59:53;19.93;;;14.20;;
19221;SDS011;9745;50.828;4.378;2022-07-23T01:02:19;19.67;;;13.90;;
19221;SDS011;9745;50.828;4.378;2022-07-23T01:04:45;19.83;;;14.60;;
19221;SDS011;9745;50.828;4.378;2022-07-23T01:07:11;21.30;;;14.17;;
19221;SDS011;9745;50.828;4.378;2022-07-23T01:09:37;17.43;;;14.33;;
19221;SDS011;9745;50.828;4.378;2022-07-23T01:12:04;19.67;;;14.03;;
19221;SDS011;9745;50.828;4.378;2022-07-23T01:14:30;26.67;;;14.47;;
19221;SDS011;9745;50.828;4.378;2022-07-23T01:16:56;20.40;;;14.33;;
19221;SDS011;9745;50.828;4.378;2022-07-23T01:19:22;20.33;;;15.00;;
19221;SDS011;9745;50.828;4.378;2022-07-23T01:21:50;20.63;;;14.40;;
19221;SDS011;9745;50.828;4.378;2022-07-23T01:24:17;20.33;;;14.93;;
19221;SDS011;9745;50.828;4.378;2022-07-23T01:26:47;21.83;;;15.37;;
19221;SDS011;9745;50.828;4.378;2022-07-23T01:29:13;24.83;;;14.90;;
19221;SDS011;9745;50.828;4.378;2022-07-23T01:31:40;21.10;;;16.30;;
19221;SDS011;9745;50.828;4.378;2022-07-23T01:34:06;24.93;;;16.00;;
19221;SDS011;9745;50.828;4.378;2022-07-23T01:36:32;23.57;;;15.63;;
19221;SDS011;9745;50.828;4.378;2022-07-23T01:38:58;19.07;;;14.33;;
19221;SDS011;9745;50.828;4.378;2022-07-23T01:41:25;21.93;;;15.17;;
19221;SDS011;9745;50.828;4.378;2022-07-23T01:43:51;25.20;;;15.43;;
19221;SDS011;9745;50.828;4.378;2022-07-23T01:46:17;21.60;;;14.80;;
19221;SDS011;9745;50.828;4.378;2022-07-23T01:48:43;25.60;;;15.33;;
19221;SDS011;9745;50.828;4.378;2022-07-23T01:51:09;21.83;;;15.47;;
19221;SDS011;9745;50.828;4.378;2022-07-23T01:53:35;19.67;;;15.07;;
19221;SDS011;9745;50.828;4.378;2022-07-23T01:56:01;24.33;;;16.63;;
19221;SDS011;9745;50.828;4.378;2022-07-23T01:58:28;21.53;;;15.80;;
19221;SDS011;9745;50.828;4.378;2022-07-23T02:00:54;19.53;;;15.23;;
19221;SDS011;9745;50.828;4.378;2022-07-23T02:03:20;22.03;;;15.50;;
19221;SDS011;9745;50.828;4.378;2022-07-23T02:05:46;19.33;;;16.03;;
19221;SDS011;9745;50.828;4.378;2022-07-23T02:08:13;23.47;;;15.10;;
19221;SDS011;9745;50.828;4.378;2022-07-23T02:10:39;20.30;;;14.30;;
19221;SDS011;9745;50.828;4.378;2022-07-23T02:13:05;24.23;;;15.40;;
19221;SDS011;9745;50.828;4.378;2022-07-23T02:15:31;20.13;;;14.20;;
19221;SDS011;9745;50.828;4.378;2022-07-23T02:17:57;22.10;;;14.80;;
19221;SDS011;9745;50.828;4.378;2022-07-23T02:20:24;22.23;;;15.00;;
19221;SDS011;9745;50.828;4.378;2022-07-23T02:22:50;28.67;;;15.67;;
19221;SDS011;9745;50.828;4.378;2022-07-23T02:25:16;23.13;;;14.90;;
19221;SDS011;9745;50.828;4.378;2022-07-23T02:27:42;22.90;;;15.00;;
19221;SDS011;9745;50.828;4.378;2022-07-23T02:30:08;20.50;;;14.47;;
19221;SDS011;9745;50.828;4.378;2022-07-23T02:32:35;25.70;;;16.33;;
19221;SDS011;9745;50.828;4.378;2022-07-23T02:35:01;17.33;;;14.43;;
19221;SDS011;9745;50.828;4.378;2022-07-23T02:37:27;27.80;;;15.50;;
19221;SDS011;9745;50.828;4.378;2022-07-23T02:39:53;23.13;;;15.23;;
19221;SDS011;9745;50.828;4.378;2022-07-23T02:42:19;18.93;;;14.53;;
19221;SDS011;9745;50.828;4.378;2022-07-23T02:44:46;24.57;;;15.60;;
19221;SDS011;9745;50.828;4.378;2022-07-23T02:47:12;19.87;;;15.00;;
19221;SDS011;9745;50.828;4.378;2022-07-23T02:49:38;28.70;;;16.43;;
19221;SDS011;9745;50.828;4.378;2022-07-23T02:52:04;23.70;;;15.53;;
19221;SDS011;9745;50.828;4.378;2022-07-23T02:54:30;24.93;;;15.30;;
19221;SDS011;9745;50.828;4.378;2022-07-23T02:56:56;20.57;;;14.70;;
19221;SDS011;9745;50.828;4.378;2022-07-23T02:59:22;19.37;;;14.20;;
19221;SDS011;9745;50.828;4.378;2022-07-23T03:01:48;24.00;;;15.80;;
19221;SDS011;9745;50.828;4.378;2022-07-23T03:04:14;25.57;;;14.90;;
19221;SDS011;9745;50.828;4.378;2022-07-23T03:06:40;20.23;;;15.00;;
19221;SDS011;9745;50.828;4.378;2022-07-23T03:09:07;19.20;;;14.73;;
19221;SDS011;9745;50.828;4.378;2022-07-23T03:11:33;23.67;;;14.67;;
19221;SDS011;9745;50.828;4.378;2022-07-23T03:13:59;19.67;;;14.27;;
19221;SDS011;9745;50.828;4.378;2022-07-23T03:16:25;19.80;;;15.47;;
19221;SDS011;9745;50.828;4.378;2022-07-23T03:18:51;19.67;;;14.20;;
19221;SDS011;9745;50.828;4.378;2022-07-23T03:21:17;19.57;;;14.80;;
19221;SDS011;9745;50.828;4.378;2022-07-23T03:23:43;21.23;;;14.73;;
19221;SDS011;9745;50.828;4.378;2022-07-23T03:26:09;23.90;;;15.77;;
19221;SDS011;9745;50.828;4.378;2022-07-23T03:28:35;19.17;;;14.77;;
19221;SDS011;9745;50.828;4.378;2022-07-23T03:31:01;18.80;;;13.63;;
19221;SDS011;9745;50.828;4.378;2022-07-23T03:33:27;20.27;;;15.43;;
19221;SDS011;9745;50.828;4.378;2022-07-23T03:35:53;20.10;;;14.60;;
19221;SDS011;9745;50.828;4.378;2022-07-23T03:38:19;20.47;;;14.43;;
19221;SDS011;9745;50.828;4.378;2022-07-23T03:40:45;18.30;;;13.90;;
19221;SDS011;9745;50.828;4.378;2022-07-23T03:43:11;21.13;;;15.60;;
19221;SDS011;9745;50.828;4.378;2022-07-23T03:45:37;25.27;;;15.97;;
19221;SDS011;9745;50.828;4.378;2022-07-23T03:48:03;21.17;;;15.10;;
19221;SDS011;9745;50.828;4.378;2022-07-23T03:50:29;21.20;;;14.87;;
19221;SDS011;9745;50.828;4.378;2022-07-23T03:52:56;24.60;;;15.93;;
19221;SDS011;9745;50.828;4.378;2022-07-23T03:55:22;18.50;;;14.73;;
19221;SDS011;9745;50.828;4.378;2022-07-23T03:57:48;24.40;;;16.43;;
19221;SDS011;9745;50.828;4.378;2022-07-23T04:00:14;26.53;;;16.13;;
19221;SDS011;9745;50.828;4.378;2022-07-23T04:02:40;21.23;;;15.87;;
19221;SDS011;9745;50.828;4.378;2022-07-23T04:05:06;21.90;;;15.03;;
19221;SDS011;9745;50.828;4.378;2022-07-23T04:07:32;26.63;;;15.43;;
19221;SDS011;9745;50.828;4.378;2022-07-23T04:09:58;20.83;;;15.17;;
19221;SDS011;9745;50.828;4.378;2022-07-23T04:12:24;19.53;;;14.43;;
19221;SDS011;9745;50.828;4.378;2022-07-23T04:14:51;22.73;;;14.83;;
19221;SDS011;9745;50.828;4.378;2022-07-23T04:17:17;23.63;;;14.37;;
19221;SDS011;9745;50.828;4.378;2022-07-23T04:19:43;19.37;;;14.53;;
19221;SDS011;9745;50.828;4.378;2022-07-23T04:22:09;19.77;;;13.53;;
19221;SDS011;9745;50.828;4.378;2022-07-23T04:24:36;18.77;;;13.80;;
19221;SDS011;9745;50.828;4.378;2022-07-23T04:27:02;21.60;;;14.23;;
19221;SDS011;9745;50.828;4.378;2022-07-23T04:29:29;21.47;;;13.33;;
19221;SDS011;9745;50.828;4.378;2022-07-23T04:31:55;21.57;;;14.57;;
19221;SDS011;9745;50.828;4.378;2022-07-23T04:34:21;18.53;;;12.83;;
19221;SDS011;9745;50.828;4.378;2022-07-23T04:36:47;19.47;;;13.30;;
19221;SDS011;9745;50.828;4.378;2022-07-23T04:39:13;21.23;;;13.63;;
19221;SDS011;9745;50.828;4.378;2022-07-23T04:41:39;20.40;;;14.10;;
19221;SDS011;9745;50.828;4.378;2022-07-23T04:44:06;20.13;;;14.23;;
19221;SDS011;9745;50.828;4.378;2022-07-23T04:46:32;20.20;;;14.07;;
19221;SDS011;9745;50.828;4.378;2022-07-23T04:48:58;19.40;;;13.53;;
19221;SDS011;9745;50.828;4.378;2022-07-23T04:51:24;23.30;;;13.33;;
19221;SDS011;9745;50.828;4.378;2022-07-23T04:53:50;19.73;;;14.27;;
19221;SDS011;9745;50.828;4.378;2022-07-23T04:56:16;19.83;;;13.93;;
19221;SDS011;9745;50.828;4.378;2022-07-23T04:58:42;17.43;;;13.13;;
19221;SDS011;9745;50.828;4.378;2022-07-23T05:01:08;17.37;;;12.03;;
19221;SDS011;9745;50.828;4.378;2022-07-23T05:03:34;20.87;;;13.00;;
19221;SDS011;9745;50.828;4.378;2022-07-23T05:06:00;22.70;;;13.20;;
19221;SDS011;9745;50.828;4.378;2022-07-23T05:08:28;17.57;;;12.93;;
19221;SDS011;9745;50.828;4.378;2022-07-23T05:10:54;20.83;;;12.00;;
19221;SDS011;9745;50.828;4.378;2022-07-23T05:13:20;17.53;;;12.03;;
19221;SDS011;9745;50.828;4.378;2022-07-23T05:15:46;18.83;;;11.73;;
19221;SDS011;9745;50.828;4.378;2022-07-23T05:18:12;18.27;;;12.27;;
19221;SDS011;9745;50.828;4.378;2022-07-23T05:20:38;15.43;;;10.87;;
19221;SDS011;9745;50.828;4.378;2022-07-23T05:23:04;15.37;;;11.30;;
19221;SDS011;9745;50.828;4.378;2022-07-23T05:25:30;15.07;;;10.97;;
19221;SDS011;9745;50.828;4.378;2022-07-23T05:27:56;13.33;;;9.80;;
19221;SDS011;9745;50.828;4.378;2022-07-23T05:30:23;16.10;;;11.03;;
19221;SDS011;9745;50.828;4.378;2022-07-23T05:32:49;15.10;;;9.93;;
19221;SDS011;9745;50.828;4.378;2022-07-23T05:35:15;13.33;;;10.07;;
19221;SDS011;9745;50.828;4.378;2022-07-23T05:37:41;15.13;;;10.80;;
19221;SDS011;9745;50.828;4.378;2022-07-23T05:40:08;17.00;;;10.17;;
19221;SDS011;9745;50.828;4.378;2022-07-23T05:42:35;14.77;;;10.57;;
19221;SDS011;9745;50.828;4.378;2022-07-23T05:45:01;15.77;;;10.47;;
19221;SDS011;9745;50.828;4.378;2022-07-23T05:47:28;16.20;;;10.60;;
19221;SDS011;9745;50.828;4.378;2022-07-23T05:49:54;15.03;;;10.93;;
19221;SDS011;9745;50.828;4.378;2022-07-23T05:52:20;17.13;;;10.80;;
19221;SDS011;9745;50.828;4.378;2022-07-23T05:54:46;15.10;;;10.73;;
19221;SDS011;9745;50.828;4.378;2022-07-23T05:57:12;17.07;;;10.40;;
19221;SDS011;9745;50.828;4.378;2022-07-23T05:59:38;13.27;;;10.23;;
19221;SDS011;9745;50.828;4.378;2022-07-23T06:02:04;14.33;;;9.73;;
19221;SDS011;9745;50.828;4.378;2022-07-23T06:04:30;13.00;;;9.70;;
19221;SDS011;9745;50.828;4.378;2022-07-23T06:06:56;14.47;;;9.90;;
19221;SDS011;9745;50.828;4.378;2022-07-23T06:09:22;10.20;;;8.77;;
19221;SDS011;9745;50.828;4.378;2022-07-23T06:11:48;12.30;;;9.30;;
19221;SDS011;9745;50.828;4.378;2022-07-23T06:14:14;13.73;;;9.50;;
19221;SDS011;9745;50.828;4.378;2022-07-23T06:16:40;11.47;;;9.13;;
19221;SDS011;9745;50.828;4.378;2022-07-23T06:19:06;11.27;;;8.43;;
19221;SDS011;9745;50.828;4.378;2022-07-23T06:21:32;13.40;;;10.17;;
19221;SDS011;9745;50.828;4.378;2022-07-23T06:23:58;12.93;;;9.60;;
19221;SDS011;9745;50.828;4.378;2022-07-23T06:26:25;14.47;;;9.63;;
19221;SDS011;9745;50.828;4.378;2022-07-23T06:28:51;14.63;;;9.23;;
19221;SDS011;9745;50.828;4.378;2022-07-23T06:31:17;13.07;;;9.30;;
19221;SDS011;9745;50.828;4.378;2022-07-23T06:33:43;16.07;;;9.80;;
19221;SDS011;9745;50.828;4.378;2022-07-23T06:36:09;13.27;;;9.23;;
19221;SDS011;9745;50.828;4.378;2022-07-23T06:38:35;10.93;;;8.20;;
19221;SDS011;9745;50.828;4.378;2022-07-23T06:41:01;13.23;;;9.00;;
19221;SDS011;9745;50.828;4.378;2022-07-23T06:43:27;13.37;;;9.60;;
19221;SDS011;9745;50.828;4.378;2022-07-23T06:45:53;15.50;;;9.57;;
19221;SDS011;9745;50.828;4.378;2022-07-23T06:48:19;13.57;;;9.83;;
19221;SDS011;9745;50.828;4.378;2022-07-23T06:50:45;14.33;;;9.50;;
19221;SDS011;9745;50.828;4.378;2022-07-23T06:53:11;11.50;;;8.47;;
19221;SDS011;9745;50.828;4.378;2022-07-23T06:55:37;11.57;;;9.67;;
19221;SDS011;9745;50.828;4.378;2022-07-23T06:58:04;15.13;;;10.10;;
19221;SDS011;9745;50.828;4.378;2022-07-23T07:00:30;16.23;;;10.13;;
19221;SDS011;9745;50.828;4.378;2022-07-23T07:02:57;13.40;;;9.93;;
19221;SDS011;9745;50.828;4.378;2022-07-23T07:05:23;12.57;;;9.10;;
19221;SDS011;9745;50.828;4.378;2022-07-23T07:07:52;16.17;;;8.73;;
19221;SDS011;9745;50.828;4.378;2022-07-23T07:10:18;13.23;;;9.70;;
19221;SDS011;9745;50.828;4.378;2022-07-23T07:12:44;14.77;;;8.77;;
19221;SDS011;9745;50.828;4.378;2022-07-23T07:15:10;14.00;;;8.90;;
19221;SDS011;9745;50.828;4.378;2022-07-23T07:17:37;13.30;;;8.10;;
19221;SDS011;9745;50.828;4.378;2022-07-23T07:20:03;12.33;;;8.30;;
19221;SDS011;9745;50.828;4.378;2022-07-23T07:22:29;10.50;;;8.10;;
19221;SDS011;9745;50.828;4.378;2022-07-23T07:24:55;10.83;;;8.30;;
19221;SDS011;9745;50.828;4.378;2022-07-23T07:27:21;12.07;;;8.67;;
19221;SDS011;9745;50.828;4.378;2022-07-23T07:29:47;9.07;;;8.17;;
19221;SDS011;9745;50.828;4.378;2022-07-23T07:32:13;12.37;;;8.17;;
19221;SDS011;9745;50.828;4.378;2022-07-23T07:34:39;11.83;;;7.70;;
19221;SDS011;9745;50.828;4.378;2022-07-23T07:37:05;10.47;;;7.50;;
19221;SDS011;9745;50.828;4.378;2022-07-23T07:39:31;12.50;;;7.73;;
19221;SDS011;9745;50.828;4.378;2022-07-23T07:41:57;11.13;;;7.73;;
19221;SDS011;9745;50.828;4.378;2022-07-23T07:44:23;10.40;;;7.60;;
19221;SDS011;9745;50.828;4.378;2022-07-23T07:46:49;9.27;;;7.70;;
19221;SDS011;9745;50.828;4.378;2022-07-23T07:49:15;9.50;;;6.87;;
19221;SDS011;9745;50.828;4.378;2022-07-23T07:51:44;9.23;;;7.97;;
19221;SDS011;9745;50.828;4.378;2022-07-23T07:54:10;8.67;;;7.37;;
19221;SDS011;9745;50.828;4.378;2022-07-23T07:56:36;10.52;;;7.18;;
19221;SDS011;9745;50.828;4.378;2022-07-23T07:59:02;9.95;;;6.93;;
19221;SDS011;9745;50.828;4.378;2022-07-23T08:01:28;9.95;;;6.80;;
19221;SDS011;9745;50.828;4.378;2022-07-23T08:03:54;10.13;;;7.30;;
19221;SDS011;9745;50.828;4.378;2022-07-23T08:06:20;7.97;;;5.93;;
19221;SDS011;9745;50.828;4.378;2022-07-23T08:08:46;8.43;;;6.78;;
19221;SDS011;9745;50.828;4.378;2022-07-23T08:11:12;9.18;;;6.10;;
19221;SDS011;9745;50.828;4.378;2022-07-23T08:13:38;9.18;;;6.05;;
19221;SDS011;9745;50.828;4.378;2022-07-23T08:16:05;7.20;;;6.20;;
19221;SDS011;9745;50.828;4.378;2022-07-23T08:18:31;8.75;;;6.10;;
19221;SDS011;9745;50.828;4.378;2022-07-23T08:20:57;8.27;;;5.72;;
19221;SDS011;9745;50.828;4.378;2022-07-23T08:23:23;8.38;;;5.53;;
19221;SDS011;9745;50.828;4.378;2022-07-23T08:25:49;7.32;;;5.63;;
19221;SDS011;9745;50.828;4.378;2022-07-23T08:28:15;7.15;;;5.95;;
19221;SDS011;9745;50.828;4.378;2022-07-23T08:30:42;9.25;;;6.22;;
19221;SDS011;9745;50.828;4.378;2022-07-23T08:33:09;7.30;;;5.45;;
19221;SDS011;9745;50.828;4.378;2022-07-23T08:35:38;7.35;;;5.75;;
19221;SDS011;9745;50.828;4.378;2022-07-23T08:38:06;12.00;;;6.68;;
19221;SDS011;9745;50.828;4.378;2022-07-23T08:40:36;11.10;;;5.80;;
19221;SDS011;9745;50.828;4.378;2022-07-23T08:43:07;8.50;;;6.07;;
19221;SDS011;9745;50.828;4.378;2022-07-23T08:45:38;8.38;;;5.90;;
19221;SDS011;9745;50.828;4.378;2022-07-23T08:48:04;8.15;;;5.80;;
19221;SDS011;9745;50.828;4.378;2022-07-23T08:50:31;9.38;;;5.40;;
19221;SDS011;9745;50.828;4.378;2022-07-23T08:52:58;8.05;;;5.53;;
19221;SDS011;9745;50.828;4.378;2022-07-23T08:55:24;8.57;;;5.47;;
19221;SDS011;9745;50.828;4.378;2022-07-23T08:57:51;6.40;;;5.75;;
19221;SDS011;9745;50.828;4.378;2022-07-23T09:00:18;6.63;;;5.25;;
19221;SDS011;9745;50.828;4.378;2022-07-23T09:02:45;10.52;;;6.18;;
19221;SDS011;9745;50.828;4.378;2022-07-23T09:05:11;7.78;;;5.25;;
19221;SDS011;9745;50.828;4.378;2022-07-23T09:07:38;6.47;;;5.60;;
19221;SDS011;9745;50.828;4.378;2022-07-23T09:10:23;5.95;;;4.85;;
19221;SDS011;9745;50.828;4.378;2022-07-23T09:12:50;8.77;;;5.85;;
19221;SDS011;9745;50.828;4.378;2022-07-23T09:15:16;10.18;;;5.47;;
19221;SDS011;9745;50.828;4.378;2022-07-23T09:17:42;9.60;;;5.65;;
19221;SDS011;9745;50.828;4.378;2022-07-23T09:20:09;5.22;;;4.68;;
19221;SDS011;9745;50.828;4.378;2022-07-23T09:22:36;9.48;;;6.00;;
19221;SDS011;9745;50.828;4.378;2022-07-23T09:25:12;6.20;;;5.57;;
19221;SDS011;9745;50.828;4.378;2022-07-23T09:27:52;6.22;;;4.78;;
19221;SDS011;9745;50.828;4.378;2022-07-23T09:30:19;6.03;;;4.75;;
19221;SDS011;9745;50.828;4.378;2022-07-23T09:33:03;6.55;;;4.50;;
19221;SDS011;9745;50.828;4.378;2022-07-23T09:38:14;14.00;;;5.38;;
19221;SDS011;9745;50.828;4.378;2022-07-23T09:40:40;9.52;;;5.18;;
19221;SDS011;9745;50.828;4.378;2022-07-23T09:43:07;7.88;;;4.93;;
19221;SDS011;9745;50.828;4.378;2022-07-23T09:45:33;5.75;;;4.38;;
19221;SDS011;9745;50.828;4.378;2022-07-23T09:48:13;6.15;;;4.50;;
19221;SDS011;9745;50.828;4.378;2022-07-23T09:50:39;8.13;;;4.82;;
19221;SDS011;9745;50.828;4.378;2022-07-23T09:53:06;6.70;;;5.38;;
19221;SDS011;9745;50.828;4.378;2022-07-23T09:55:32;5.28;;;4.00;;
19221;SDS011;9745;50.828;4.378;2022-07-23T09:58:05;5.90;;;3.75;;
19221;SDS011;9745;50.828;4.378;2022-07-23T10:00:37;5.97;;;4.72;;
19221;SDS011;9745;50.828;4.378;2022-07-23T10:03:04;4.95;;;4.15;;
19221;SDS011;9745;50.828;4.378;2022-07-23T10:05:31;7.70;;;4.43;;
19221;SDS011;9745;50.828;4.378;2022-07-23T10:08:00;6.45;;;4.57;;
19221;SDS011;9745;50.828;4.378;2022-07-23T10:10:27;4.70;;;4.07;;
19221;SDS011;9745;50.828;4.378;2022-07-23T10:12:54;6.13;;;4.03;;
19221;SDS011;9745;50.828;4.378;2022-07-23T10:15:40;7.20;;;4.38;;
19221;SDS011;9745;50.828;4.378;2022-07-23T10:18:06;6.10;;;4.40;;
19221;SDS011;9745;50.828;4.378;2022-07-23T10:20:32;6.35;;;5.32;;
19221;SDS011;9745;50.828;4.378;2022-07-23T10:23:00;6.75;;;4.32;;
19221;SDS011;9745;50.828;4.378;2022-07-23T10:25:40;5.97;;;4.05;;
19221;SDS011;9745;50.828;4.378;2022-07-23T10:28:14;6.35;;;4.07;;
19221;SDS011;9745;50.828;4.378;2022-07-23T10:30:44;6.10;;;4.32;;
19221;SDS011;9745;50.828;4.378;2022-07-23T10:36:04;10.65;;;5.10;;
19221;SDS011;9745;50.828;4.378;2022-07-23T10:38:51;6.83;;;4.73;;
19221;SDS011;9745;50.828;4.378;2022-07-23T10:41:31;11.37;;;4.30;;
19221;SDS011;9745;50.828;4.378;2022-07-23T10:44:07;5.67;;;3.77;;
19221;SDS011;9745;50.828;4.378;2022-07-23T10:46:34;7.20;;;4.47;;
19221;SDS011;9745;50.828;4.378;2022-07-23T10:54:29;5.83;;;4.60;;
19221;SDS011;9745;50.828;4.378;2022-07-23T10:59:22;13.33;;;8.43;;
19221;SDS011;9745;50.828;4.378;2022-07-23T11:01:48;8.20;;;4.63;;
19221;SDS011;9745;50.828;4.378;2022-07-23T11:04:14;8.77;;;4.83;;
19221;SDS011;9745;50.828;4.378;2022-07-23T11:17:23;6.80;;;4.60;;
19221;SDS011;9745;50.828;4.378;2022-07-23T11:22:37;8.43;;;4.57;;
19221;SDS011;9745;50.828;4.378;2022-07-23T11:25:03;7.73;;;4.43;;
19221;SDS011;9745;50.828;4.378;2022-07-23T11:27:37;8.07;;;5.37;;
19221;SDS011;9745;50.828;4.378;2022-07-23T11:30:03;5.57;;;3.80;;
19221;SDS011;9745;50.828;4.378;2022-07-23T11:32:30;7.63;;;4.40;;
19221;SDS011;9745;50.828;4.378;2022-07-23T11:34:58;9.97;;;3.87;;
19221;SDS011;9745;50.828;4.378;2022-07-23T11:37:32;5.30;;;3.90;;
19221;SDS011;9745;50.828;4.378;2022-07-23T11:40:02;8.17;;;4.33;;
19221;SDS011;9745;50.828;4.378;2022-07-23T11:42:29;5.97;;;4.00;;
19221;SDS011;9745;50.828;4.378;2022-07-23T11:44:55;6.37;;;3.83;;
19221;SDS011;9745;50.828;4.378;2022-07-23T11:47:22;8.87;;;4.20;;
19221;SDS011;9745;50.828;4.378;2022-07-23T11:49:52;6.47;;;5.20;;
19221;SDS011;9745;50.828;4.378;2022-07-23T11:52:18;6.73;;;5.10;;
19221;SDS011;9745;50.828;4.378;2022-07-23T11:57:13;8.73;;;5.30;;
19221;SDS011;9745;50.828;4.378;2022-07-23T11:59:39;6.73;;;4.87;;
19221;SDS011;9745;50.828;4.378;2022-07-23T12:02:06;5.60;;;3.77;;
19221;SDS011;9745;50.828;4.378;2022-07-23T12:04:38;9.87;;;5.60;;
19221;SDS011;9745;50.828;4.378;2022-07-23T12:07:08;8.43;;;5.57;;
19221;SDS011;9745;50.828;4.378;2022-07-23T12:09:48;11.53;;;5.90;;
19221;SDS011;9745;50.828;4.378;2022-07-23T12:12:14;9.07;;;5.30;;
19221;SDS011;9745;50.828;4.378;2022-07-23T12:14:53;7.87;;;5.10;;
19221;SDS011;9745;50.828;4.378;2022-07-23T12:17:20;7.37;;;5.27;;
19221;SDS011;9745;50.828;4.378;2022-07-23T12:19:46;6.87;;;4.30;;
19221;SDS011;9745;50.828;4.378;2022-07-23T12:22:12;6.57;;;4.53;;
19221;SDS011;9745;50.828;4.378;2022-07-23T12:24:58;7.70;;;5.00;;
19221;SDS011;9745;50.828;4.378;2022-07-23T12:27:25;6.97;;;4.90;;
19221;SDS011;9745;50.828;4.378;2022-07-23T12:29:52;7.97;;;6.13;;
19221;SDS011;9745;50.828;4.378;2022-07-23T12:32:19;9.13;;;5.23;;
19221;SDS011;9745;50.828;4.378;2022-07-23T12:34:45;7.60;;;4.33;;
19221;SDS011;9745;50.828;4.378;2022-07-23T12:37:27;9.13;;;5.73;;
19221;SDS011;9745;50.828;4.378;2022-07-23T12:39:53;7.10;;;4.77;;
19221;SDS011;9745;50.828;4.378;2022-07-23T12:42:19;7.20;;;4.90;;
19221;SDS011;9745;50.828;4.378;2022-07-23T12:47:54;5.77;;;4.53;;
19221;SDS011;9745;50.828;4.378;2022-07-23T12:50:34;10.43;;;4.87;;
19221;SDS011;9745;50.828;4.378;2022-07-23T12:53:02;8.40;;;6.13;;
19221;SDS011;9745;50.828;4.378;2022-07-23T12:55:28;11.70;;;6.17;;
19221;SDS011;9745;50.828;4.378;2022-07-23T12:58:02;8.63;;;6.30;;
19221;SDS011;9745;50.828;4.378;2022-07-23T13:00:29;9.20;;;6.10;;
19221;SDS011;9745;50.828;4.378;2022-07-23T13:02:56;8.03;;;5.67;;
19221;SDS011;9745;50.828;4.378;2022-07-23T13:05:22;6.50;;;4.40;;
19221;SDS011;9745;50.828;4.378;2022-07-23T13:07:48;6.83;;;4.23;;
19221;SDS011;9745;50.828;4.378;2022-07-23T13:10:14;7.87;;;3.83;;
19221;SDS011;9745;50.828;4.378;2022-07-23T13:12:40;5.60;;;3.77;;
19221;SDS011;9745;50.828;4.378;2022-07-23T13:15:06;8.17;;;3.87;;
19221;SDS011;9745;50.828;4.378;2022-07-23T13:17:32;6.20;;;3.87;;
19221;SDS011;9745;50.828;4.378;2022-07-23T13:19:58;7.47;;;4.23;;
19221;SDS011;9745;50.828;4.378;2022-07-23T13:22:24;5.07;;;3.90;;
19221;SDS011;9745;50.828;4.378;2022-07-23T13:24:50;4.87;;;3.87;;
19221;SDS011;9745;50.828;4.378;2022-07-23T13:27:17;5.37;;;4.30;;
19221;SDS011;9745;50.828;4.378;2022-07-23T13:29:43;6.83;;;3.80;;
19221;SDS011;9745;50.828;4.378;2022-07-23T13:32:09;4.87;;;3.97;;
19221;SDS011;9745;50.828;4.378;2022-07-23T13:34:35;5.27;;;3.57;;
19221;SDS011;9745;50.828;4.378;2022-07-23T13:37:01;6.07;;;3.43;;
19221;SDS011;9745;50.828;4.378;2022-07-23T13:39:27;3.83;;;3.40;;
19221;SDS011;9745;50.828;4.378;2022-07-23T13:41:53;5.17;;;3.73;;
19221;SDS011;9745;50.828;4.378;2022-07-23T13:44:19;8.83;;;3.90;;
19221;SDS011;9745;50.828;4.378;2022-07-23T13:46:45;5.03;;;3.20;;
19221;SDS011;9745;50.828;4.378;2022-07-23T13:49:12;5.63;;;3.27;;
19221;SDS011;9745;50.828;4.378;2022-07-23T13:51:38;6.37;;;3.00;;
19221;SDS011;9745;50.828;4.378;2022-07-23T13:54:04;3.83;;;3.03;;
19221;SDS011;9745;50.828;4.378;2022-07-23T13:56:30;5.43;;;3.20;;
19221;SDS011;9745;50.828;4.378;2022-07-23T13:58:56;5.93;;;3.23;;
19221;SDS011;9745;50.828;4.378;2022-07-23T14:01:22;5.80;;;3.27;;
19221;SDS011;9745;50.828;4.378;2022-07-23T14:03:48;4.43;;;3.10;;
19221;SDS011;9745;50.828;4.378;2022-07-23T14:06:14;5.50;;;3.37;;
19221;SDS011;9745;50.828;4.378;2022-07-23T14:08:40;6.30;;;3.60;;
19221;SDS011;9745;50.828;4.378;2022-07-23T14:11:06;6.40;;;3.30;;
19221;SDS011;9745;50.828;4.378;2022-07-23T14:13:32;3.23;;;2.67;;
19221;SDS011;9745;50.828;4.378;2022-07-23T14:15:58;4.23;;;3.33;;
19221;SDS011;9745;50.828;4.378;2022-07-23T14:18:24;4.40;;;2.90;;
19221;SDS011;9745;50.828;4.378;2022-07-23T14:20:50;3.80;;;3.30;;
19221;SDS011;9745;50.828;4.378;2022-07-23T14:23:16;6.37;;;3.50;;
19221;SDS011;9745;50.828;4.378;2022-07-23T14:25:42;6.13;;;3.40;;
19221;SDS011;9745;50.828;4.378;2022-07-23T14:28:09;4.22;;;2.90;;
19221;SDS011;9745;50.828;4.378;2022-07-23T14:30:36;8.07;;;3.55;;
19221;SDS011;9745;50.828;4.378;2022-07-23T14:33:03;5.82;;;3.15;;
19221;SDS011;9745;50.828;4.378;2022-07-23T14:35:28;4.40;;;3.65;;
19221;SDS011;9745;50.828;4.378;2022-07-23T14:37:54;5.43;;;4.03;;
19221;SDS011;9745;50.828;4.378;2022-07-23T14:40:22;5.25;;;3.55;;
19221;SDS011;9745;50.828;4.378;2022-07-23T14:42:48;4.90;;;3.10;;
19221;SDS011;9745;50.828;4.378;2022-07-23T14:45:14;8.43;;;3.60;;
19221;SDS011;9745;50.828;4.378;2022-07-23T14:47:40;3.40;;;3.10;;
19221;SDS011;9745;50.828;4.378;2022-07-23T14:50:06;5.87;;;3.40;;
19221;SDS011;9745;50.828;4.378;2022-07-23T14:52:33;4.07;;;2.97;;
19221;SDS011;9745;50.828;4.378;2022-07-23T14:54:59;4.63;;;3.40;;
19221;SDS011;9745;50.828;4.378;2022-07-23T14:57:25;5.73;;;3.30;;
19221;SDS011;9745;50.828;4.378;2022-07-23T14:59:52;4.93;;;3.43;;
19221;SDS011;9745;50.828;4.378;2022-07-23T15:02:18;7.70;;;4.13;;
19221;SDS011;9745;50.828;4.378;2022-07-23T15:04:44;6.17;;;3.50;;
19221;SDS011;9745;50.828;4.378;2022-07-23T15:07:10;6.90;;;3.87;;
19221;SDS011;9745;50.828;4.378;2022-07-23T15:09:36;5.87;;;3.50;;
19221;SDS011;9745;50.828;4.378;2022-07-23T15:12:03;5.60;;;3.60;;
19221;SDS011;9745;50.828;4.378;2022-07-23T15:14:29;4.53;;;4.00;;
19221;SDS011;9745;50.828;4.378;2022-07-23T15:16:55;6.07;;;3.67;;
19221;SDS011;9745;50.828;4.378;2022-07-23T15:19:22;4.00;;;3.60;;